Time;durP1;ratioP1;P1;durP2;ratioP2;P2;SDS_P1;SDS_P2;PMS_P1;PMS_P2;Temp;Humidity;BMP_temperature;BMP_pressure;BME280_temperature;BME280_humidity;BME280_pressure;Samples;Min_cycle;Max_cycle;Signal;HPM_P1;HPM_P2
2023/07/04 00:01:59;;;;;;;3.80;3.00;;;17.10;1.00;;;;;;5013477;28;20497;-83
2023/07/04 00:05:00;;;;;;;4.17;3.20;;;17.20;1.00;;;;;;4993561;28;20458;-83
2023/07/04 00:07:31;;;;;;;3.80;2.87;;;17.00;1.00;;;;;;4982580;28;20978;-83
2023/07/04 00:10:29;;;;;;;3.27;2.90;;;17.00;1.00;;;;;;4981954;28;20428;-83
2023/07/04 00:13:00;;;;;;;4.73;3.33;;;17.00;1.00;;;;;;5001473;28;20482;-75
2023/07/04 00:15:36;;;;;;;3.40;2.67;;;17.00;1.00;;;;;;4985027;28;20970;-75
2023/07/04 00:18:02;;;;;;;6.67;3.30;;;17.00;1.00;;;;;;4999579;28;20483;-75
2023/07/04 00:20:33;;;;;;;4.80;3.30;;;16.90;1.00;;;;;;4994179;28;20456;-75
2023/07/04 00:23:00;;;;;;;6.83;3.43;;;16.90;1.00;;;;;;4981791;28;20422;-75
2023/07/04 00:25:26;;;;;;;5.50;2.93;;;16.90;1.00;;;;;;4995914;28;20820;-75
2023/07/04 00:28:29;;;;;;;3.17;2.87;;;16.90;1.00;;;;;;5003529;28;20428;-83
2023/07/04 00:31:29;;;;;;;4.83;3.27;;;16.80;1.00;;;;;;4997275;28;20653;-84
2023/07/04 00:34:24;;;;;;;6.30;3.50;;;16.80;1.00;;;;;;4995942;28;20903;-83
2023/07/04 00:37:36;;;;;;;5.90;3.60;;;16.80;1.00;;;;;;4990246;28;20516;-83
2023/07/04 00:40:07;;;;;;;4.00;3.00;;;16.70;1.00;;;;;;5004895;28;20421;-83
2023/07/04 00:42:36;;;;;;;5.33;3.00;;;16.60;1.00;;;;;;5000670;28;20427;-75
2023/07/04 00:45:10;;;;;;;12.80;3.43;;;16.60;1.00;;;;;;4982693;28;20485;-75
2023/07/04 00:47:43;;;;;;;5.33;2.97;;;16.60;1.00;;;;;;4989815;28;20429;-75
2023/07/04 00:50:13;;;;;;;8.30;3.70;;;16.60;1.00;;;;;;4996683;28;20416;-75
2023/07/04 00:52:39;;;;;;;11.40;3.93;;;16.60;1.00;;;;;;4998975;28;20979;-74
2023/07/04 00:55:10;;;;;;;5.97;3.30;;;16.50;1.00;;;;;;4994162;28;20401;-75
2023/07/04 00:58:32;;;;;;;13.33;3.50;;;16.40;1.00;;;;;;4998593;28;20178;-83
2023/07/04 01:01:23;;;;;;;4.60;2.90;;;16.40;1.00;;;;;;4990786;28;20481;-83
2023/07/04 01:04:29;;;;;;;7.13;3.80;;;16.30;1.00;;;;;;5002401;28;20436;-83
2023/07/04 01:07:25;;;;;;;11.00;3.67;;;16.30;1.00;;;;;;4995654;28;20396;-84
2023/07/04 01:10:10;;;;;;;6.80;3.27;;;16.20;1.00;;;;;;5008063;28;20781;-83
2023/07/04 01:12:42;;;;;;;7.13;2.87;;;16.10;1.00;;;;;;4999541;28;20800;-75
2023/07/04 01:15:12;;;;;;;5.43;3.33;;;16.10;1.00;;;;;;4981370;28;20454;-75
2023/07/04 01:17:42;;;;;;;5.37;3.27;;;16.00;1.00;;;;;;4989456;28;20958;-74
2023/07/04 01:20:11;;;;;;;4.50;3.20;;;16.00;1.00;;;;;;5012369;28;20494;-75
2023/07/04 01:22:58;;;;;;;8.63;3.30;;;15.80;1.00;;;;;;5001952;28;20451;-75
2023/07/04 01:25:37;;;;;;;4.03;3.07;;;15.90;1.00;;;;;;4998968;28;20412;-76
2023/07/04 01:28:54;;;;;;;6.50;3.50;;;15.80;1.00;;;;;;4991322;28;20450;-83
2023/07/04 01:34:41;;;;;;;4.13;3.07;;;15.60;1.00;;;;;;5014285;28;20432;-83
2023/07/04 01:37:07;;;;;;;7.10;3.47;;;15.60;1.00;;;;;;4994756;28;20496;-87
2023/07/04 01:40:00;;;;;;;9.80;3.87;;;15.50;1.00;;;;;;4988878;28;20179;-83
2023/07/04 01:42:33;;;;;;;7.30;3.50;;;15.40;1.00;;;;;;4978546;28;20175;-83
2023/07/04 01:45:03;;;;;;;4.93;3.50;;;15.40;1.00;;;;;;4990231;28;20452;-83
2023/07/04 01:47:59;;;;;;;5.57;3.40;;;15.30;1.00;;;;;;4982594;28;20422;-83
2023/07/04 01:50:30;;;;;;;6.00;3.40;;;15.20;1.00;;;;;;4988442;28;20468;-83
2023/07/04 01:53:00;;;;;;;4.47;3.00;;;15.10;1.00;;;;;;5007967;28;20494;-82
2023/07/04 01:55:30;;;;;;;4.03;3.20;;;15.10;1.00;;;;;;5016525;28;20389;-83
2023/07/04 01:57:57;;;;;;;4.33;3.33;;;15.10;1.00;;;;;;5009462;28;20408;-76
2023/07/04 02:00:23;;;;;;;6.53;4.13;;;15.00;1.00;;;;;;5003766;28;20759;-75
2023/07/04 02:02:49;;;;;;;6.50;3.63;;;14.90;1.00;;;;;;5009698;28;20406;-75
2023/07/04 02:05:19;;;;;;;4.57;3.10;;;14.90;1.00;;;;;;5014679;28;20211;-75
2023/07/04 02:07:46;;;;;;;6.30;3.77;;;14.80;1.00;;;;;;4994301;28;20177;-75
2023/07/04 02:10:12;;;;;;;5.73;3.70;;;14.90;1.00;;;;;;4992797;28;20411;-75
2023/07/04 02:13:11;;;;;;;7.90;3.40;;;14.80;1.00;;;;;;5011638;28;20786;-83
2023/07/04 02:16:29;;;;;;;10.23;3.73;;;14.60;1.00;;;;;;4992110;28;20791;-82
2023/07/04 02:19:29;;;;;;;5.10;3.70;;;14.60;1.00;;;;;;4989304;28;20512;-83
2023/07/04 02:22:30;;;;;;;14.67;3.80;;;14.60;1.00;;;;;;4988231;28;20445;-83
2023/07/04 02:28:17;;;;;;;5.03;3.30;;;14.50;1.00;;;;;;4982564;28;20473;-75
2023/07/04 02:30:53;;;;;;;8.33;3.90;;;14.50;1.00;;;;;;5006560;28;20983;-75
2023/07/04 02:33:24;;;;;;;14.30;4.10;;;14.40;1.00;;;;;;5004713;28;20203;-88
2023/07/04 02:36:00;;;;;;;5.40;3.43;;;14.40;1.00;;;;;;5004888;28;21014;-87
2023/07/04 02:38:54;;;;;;;9.80;3.53;;;14.50;1.00;;;;;;4994424;28;20420;-87
2023/07/04 02:41:59;;;;;;;7.30;3.73;;;14.40;1.00;;;;;;4997406;28;20529;-87
2023/07/04 02:44:30;;;;;;;9.60;3.57;;;14.40;1.00;;;;;;4995751;28;20510;-86
2023/07/04 02:47:29;;;;;;;8.73;4.00;;;14.40;1.00;;;;;;4993632;28;20515;-85
2023/07/04 02:50:23;;;;;;;12.30;3.50;;;14.30;1.00;;;;;;5005338;28;20427;-85
2023/07/04 02:53:01;;;;;;;7.30;4.40;;;14.30;1.00;;;;;;4999342;28;20463;-86
2023/07/04 02:55:30;;;;;;;11.90;4.67;;;14.30;1.00;;;;;;4999937;28;20439;-85
2023/07/04 02:58:30;;;;;;;6.60;3.93;;;14.30;1.00;;;;;;5000983;28;20449;-86
2023/07/04 03:04:51;;;;;;;4.47;3.60;;;14.30;1.00;;;;;;4979044;28;20476;-87
2023/07/04 03:07:30;;;;;;;4.67;3.20;;;14.20;1.00;;;;;;5005849;28;20391;-87
2023/07/04 03:10:00;;;;;;;13.37;4.40;;;14.20;1.00;;;;;;5013838;28;20429;-86
2023/07/04 03:12:30;;;;;;;4.27;3.57;;;14.10;1.00;;;;;;4995140;28;20432;-87
2023/07/04 03:15:00;;;;;;;10.40;4.37;;;14.10;1.00;;;;;;4994690;28;20433;-86
2023/07/04 03:21:00;;;;;;;7.47;4.53;;;14.10;1.00;;;;;;4983288;28;20818;-87
2023/07/04 03:23:30;;;;;;;4.60;3.33;;;14.50;1.00;;;;;;4994910;28;20573;-87
2023/07/04 03:26:00;;;;;;;8.07;4.17;;;14.10;1.00;;;;;;4994177;28;20478;-87
2023/07/04 03:32:00;;;;;;;22.87;4.63;;;14.20;1.00;;;;;;4980114;28;20429;-86
2023/07/04 03:34:30;;;;;;;11.27;4.13;;;14.80;1.00;;;;;;4993385;28;20924;-85
2023/07/04 03:37:00;;;;;;;14.13;4.90;;;14.20;1.00;;;;;;4995130;28;20916;-85
2023/07/04 03:39:30;;;;;;;10.60;4.30;;;14.20;1.00;;;;;;4993136;28;20448;-86
2023/07/04 03:42:00;;;;;;;7.37;4.40;;;14.20;1.00;;;;;;4997194;28;20486;-86
2023/07/04 03:44:30;;;;;;;13.03;4.23;;;14.20;1.00;;;;;;5022287;28;20441;-86
2023/07/04 03:47:00;;;;;;;11.03;4.70;;;14.20;1.00;;;;;;5008949;28;20394;-86
2023/07/04 03:49:30;;;;;;;6.27;3.70;;;14.20;1.00;;;;;;4998007;28;20940;-86
2023/07/04 03:52:00;;;;;;;11.47;4.57;;;14.40;1.00;;;;;;4994233;28;20919;-85
2023/07/04 03:54:59;;;;;;;9.97;4.07;;;14.30;1.00;;;;;;5002261;28;20805;-85
2023/07/04 03:57:30;;;;;;;6.43;4.30;;;14.20;1.00;;;;;;5004363;28;20483;-85
2023/07/04 04:00:00;;;;;;;9.87;4.10;;;;;;;;;;5004718;28;20458;-88
2023/07/04 04:02:30;;;;;;;7.40;4.57;;;14.20;1.00;;;;;;4996506;28;20431;-87
2023/07/04 04:05:29;;;;;;;8.07;4.50;;;14.40;1.00;;;;;;5014028;28;20459;-87
2023/07/04 04:08:00;;;;;;;9.07;4.23;;;14.30;1.00;;;;;;4974952;28;20388;-87
2023/07/04 04:10:30;;;;;;;6.40;3.80;;;14.90;1.00;;;;;;4979801;28;20934;-87
2023/07/04 04:16:18;;;;;;;6.30;3.67;;;;;;;;;;4992515;28;20480;-87
2023/07/04 04:22:06;;;;;;;6.70;3.60;;;14.50;1.00;;;;;;5002520;28;20389;-87
2023/07/04 04:28:35;;;;;;;7.53;3.80;;;14.60;1.00;;;;;;4994330;28;20220;-88
2023/07/04 04:34:23;;;;;;;5.97;3.83;;;14.70;1.00;;;;;;4977498;28;20405;-87
2023/07/04 04:37:29;;;;;;;10.80;4.70;;;15.00;1.00;;;;;;4990840;28;20426;-88
2023/07/04 04:40:00;;;;;;;7.10;3.70;;;14.80;1.00;;;;;;5002553;28;20641;-87
2023/07/04 04:46:35;;;;;;;6.67;4.47;;;15.10;1.00;;;;;;4988886;28;20398;-86
2023/07/04 04:49:08;;;;;;;4.70;3.80;;;15.10;1.00;;;;;;4990567;28;20408;-86
2023/07/04 04:54:55;;;;;;;10.40;3.80;;;15.20;1.00;;;;;;4992735;28;20379;-86
2023/07/04 05:00:44;;;;;;;10.67;4.63;;;15.50;1.00;;;;;;4989107;28;20247;-87
2023/07/04 05:06:32;;;;;;;9.23;4.87;;;;;;;;;;5002372;28;20533;-87
2023/07/04 05:12:20;;;;;;;8.30;4.10;;;15.80;1.00;;;;;;5018001;28;20403;-87
2023/07/04 05:18:08;;;;;;;6.30;4.20;;;16.00;1.00;;;;;;4998007;28;20815;-88
2023/07/04 05:21:17;;;;;;;8.20;3.93;;;16.30;1.00;;;;;;5001651;28;20408;-88
2023/07/04 05:23:44;;;;;;;8.33;3.83;;;16.40;1.00;;;;;;4996167;28;20436;-87
2023/07/04 05:26:25;;;;;;;6.90;4.13;;;16.50;1.00;;;;;;5003842;28;20435;-88
2023/07/04 05:29:08;;;;;;;8.90;4.40;;;16.60;1.00;;;;;;5009815;28;20465;-88
2023/07/04 05:35:18;;;;;;;6.93;3.70;;;16.70;1.00;;;;;;4985552;28;20436;-88
2023/07/04 05:41:20;;;;;;;9.73;4.03;;;16.90;1.00;;;;;;5001247;28;20401;-89
2023/07/04 05:54:35;;;;;;;14.73;4.60;;;17.20;1.00;;;;;;5003325;28;20454;-86
2023/07/04 06:01:03;;;;;;;6.70;3.50;;;17.50;1.00;;;;;;5003753;28;20457;-87
2023/07/04 06:07:36;;;;;;;6.90;3.70;;;17.70;1.00;;;;;;5003677;28;20427;-87
2023/07/04 06:10:36;;;;;;;12.40;3.80;;;17.80;1.00;;;;;;5013559;28;20557;-87
2023/07/04 06:13:36;;;;;;;10.57;3.90;;;17.80;1.00;;;;;;4997462;28;20430;-87
2023/07/04 06:16:06;;;;;;;8.90;3.80;;;17.90;1.00;;;;;;4996446;28;20450;-87
2023/07/04 06:19:24;;;;;;;14.83;3.70;;;18.00;1.00;;;;;;4996241;28;20435;-88
2023/07/04 06:22:24;;;;;;;13.43;4.07;;;18.10;1.00;;;;;;4995166;28;20447;-87
2023/07/04 06:24:54;;;;;;;11.13;3.60;;;18.20;1.00;;;;;;5002961;28;20451;-88
2023/07/04 06:27:20;;;;;;;12.00;3.60;;;18.10;1.00;;;;;;5010683;28;20464;-87
2023/07/04 06:33:07;;;;;;;7.30;3.20;;;18.30;1.00;;;;;;5015739;28;20214;-87
2023/07/04 06:39:01;;;;;;;13.40;3.27;;;18.50;1.00;;;;;;4994270;28;20722;-87
2023/07/04 06:41:27;;;;;;;12.53;3.13;;;18.50;1.00;;;;;;5014311;28;20450;-88
2023/07/04 06:44:29;;;;;;;7.40;3.30;;;18.70;1.00;;;;;;5015198;28;20536;-87
2023/07/04 06:47:17;;;;;;;6.37;2.83;;;18.90;1.00;;;;;;5004404;28;20421;-87
2023/07/04 06:49:43;;;;;;;9.40;2.90;;;19.00;1.00;;;;;;5001517;28;20434;-87
2023/07/04 06:52:29;;;;;;;7.07;2.90;;;19.00;1.00;;;;;;4991101;28;20419;-85
2023/07/04 06:58:17;;;;;;;7.13;2.87;;;19.10;1.00;;;;;;5010098;28;20563;-87
2023/07/04 07:01:32;;;;;;;9.60;3.10;;;19.10;1.00;;;;;;5013068;28;20518;-87
2023/07/04 07:08:14;;;;;;;7.10;2.80;;;19.30;1.00;;;;;;5002089;28;20423;-87
2023/07/04 07:10:57;;;;;;;10.73;2.93;;;19.50;1.00;;;;;;4986591;28;20440;-85
2023/07/04 07:13:25;;;;;;;7.50;3.20;;;19.50;1.00;;;;;;4990478;28;20435;-87
2023/07/04 07:16:36;;;;;;;9.97;2.80;;;19.70;1.00;;;;;;4990976;28;20432;-87
2023/07/04 07:19:18;;;;;;;6.90;2.70;;;20.00;1.00;;;;;;5004807;28;20411;-87
2023/07/04 07:25:18;;;;;;;8.67;2.83;;;19.90;1.00;;;;;;4992917;28;20884;-86
2023/07/04 07:28:00;;;;;;;6.50;2.90;;;20.00;1.00;;;;;;4998777;28;20459;-87
2023/07/04 07:33:49;;;;;;;9.93;2.83;;;20.20;1.00;;;;;;4981602;28;20432;-85
2023/07/04 07:36:37;;;;;;;8.23;2.70;;;20.50;1.00;;;;;;4996259;28;20442;-85
2023/07/04 07:39:18;;;;;;;17.33;6.40;;;20.30;1.00;;;;;;4986680;28;20450;-86
2023/07/04 07:42:23;;;;;;;9.27;3.00;;;20.30;1.00;;;;;;4992001;28;20492;-87
2023/07/04 07:48:12;;;;;;;7.97;3.50;;;20.90;1.00;;;;;;4994311;28;20700;-88
2023/07/04 07:51:31;;;;;;;17.93;3.10;;;20.90;1.00;;;;;;4999311;28;20429;-87
2023/07/04 07:54:24;;;;;;;18.17;3.33;;;21.20;1.00;;;;;;4987884;28;20445;-88
2023/07/04 07:57:17;;;;;;;7.73;3.03;;;21.20;1.00;;;;;;4990884;28;20445;-88
2023/07/04 08:00:00;;;;;;;12.10;3.17;;;21.20;1.00;;;;;;4998725;28;20437;-86
2023/07/04 08:03:05;;;;;;;8.10;2.80;;;21.20;1.00;;;;;;4997506;28;20442;-88
2023/07/04 08:08:56;;;;;;;9.80;2.83;;;21.00;1.00;;;;;;4989048;28;20450;-86
2023/07/04 08:11:26;;;;;;;6.10;3.10;;;21.10;1.00;;;;;;5001750;28;20449;-87
2023/07/04 08:14:25;;;;;;;9.00;2.90;;;21.00;1.00;;;;;;4994449;28;20458;-86
2023/07/04 08:20:13;;;;;;;5.87;3.07;;;21.30;1.00;;;;;;4993843;28;20509;-88
2023/07/04 08:22:39;;;;;;;4.60;2.50;;;21.30;1.00;;;;;;4992578;28;20463;-88
2023/07/04 08:25:47;;;;;;;11.63;2.90;;;21.50;1.00;;;;;;4998803;28;20526;-88
2023/07/04 08:28:38;;;;;;;4.13;3.00;;;21.60;1.00;;;;;;4994444;28;20202;-88
2023/07/04 08:31:12;;;;;;;7.10;2.80;;;21.30;1.00;;;;;;4991339;28;20530;-88
2023/07/04 08:34:17;;;;;;;6.53;2.60;;;21.30;1.00;;;;;;5008758;28;20428;-88
2023/07/04 08:36:44;;;;;;;9.53;3.10;;;21.40;1.00;;;;;;5005869;28;20439;-88
2023/07/04 08:39:10;;;;;;;5.27;2.57;;;21.40;1.00;;;;;;5015440;28;20445;-88
2023/07/04 08:44:59;;;;;;;7.60;2.90;;;21.60;1.00;;;;;;5000605;28;20706;-88
2023/07/04 08:48:05;;;;;;;4.97;3.07;;;21.80;1.00;;;;;;5008815;28;20446;-88
2023/07/04 08:54:36;;;;;;;5.90;2.83;;;21.70;1.00;;;;;;4988765;28;20908;-86
2023/07/04 08:57:37;;;;;;;9.17;2.93;;;22.00;1.00;;;;;;4991790;28;20524;-86
2023/07/04 09:00:14;;;;;;;4.20;2.50;;;22.30;1.00;;;;;;4987584;28;20440;-86
2023/07/04 09:03:02;;;;;;;11.80;2.90;;;22.30;1.00;;;;;;4991364;28;20882;-86
2023/07/04 09:05:47;;;;;;;3.40;2.80;;;22.40;1.00;;;;;;4989602;28;20513;-88
2023/07/04 09:08:32;;;;;;;6.03;3.00;;;22.60;1.00;;;;;;4989057;28;20436;-89
2023/07/04 09:11:07;;;;;;;6.73;2.80;;;22.70;1.00;;;;;;4992248;28;20441;-89
2023/07/04 09:13:44;;;;;;;4.03;2.63;;;22.60;1.00;;;;;;4991651;28;20478;-88
2023/07/04 09:16:23;;;;;;;6.33;2.70;;;22.60;1.00;;;;;;4990799;28;20987;-87
2023/07/04 09:18:57;;;;;;;9.90;3.47;;;22.80;1.00;;;;;;4989539;28;20429;-88
2023/07/04 09:21:24;;;;;;;5.67;2.43;;;22.90;1.00;;;;;;4989663;28;20442;-88
2023/07/04 09:23:52;;;;;;;5.70;3.13;;;23.00;1.00;;;;;;4991815;28;20463;-88
2023/07/04 09:26:21;;;;;;;8.40;2.90;;;22.80;1.00;;;;;;4988673;28;20446;-88
2023/07/04 09:28:56;;;;;;;5.93;3.63;;;23.10;1.00;;;;;;4991824;28;20461;-89
2023/07/04 09:31:29;;;;;;;8.80;2.90;;;23.30;1.00;;;;;;4987395;28;20545;-89
2023/07/04 09:37:19;;;;;;;6.97;3.20;;;23.40;1.00;;;;;;5007573;28;20443;-86
2023/07/04 09:47:05;;;;;;;5.70;3.00;;;23.40;1.00;;;;;;5003798;28;20441;-86
2023/07/04 09:49:42;;;;;;;17.57;3.53;;;23.30;1.00;;;;;;5016531;28;20434;-89
2023/07/04 09:53:01;;;;;;;9.80;3.60;;;23.40;1.00;;;;;;5000857;28;20499;-88
2023/07/04 09:56:01;;;;;;;6.77;3.30;;;23.90;1.00;;;;;;5006210;28;20424;-88
2023/07/04 10:08:49;;;;;;;7.20;3.57;;;24.40;1.00;;;;;;4990746;28;20470;-74
2023/07/04 10:11:30;;;;;;;10.37;3.80;;;24.50;1.00;;;;;;4999076;28;20474;-75
2023/07/04 10:14:15;;;;;;;11.87;3.90;;;24.50;1.00;;;;;;4993924;28;20440;-74
2023/07/04 10:16:50;;;;;;;6.20;3.50;;;24.30;1.00;;;;;;4993115;28;20427;-75
2023/07/04 10:19:20;;;;;;;182.47;10.60;;;24.40;1.00;;;;;;4988964;28;20427;-75
2023/07/04 10:21:50;;;;;;;15.80;5.07;;;24.60;1.00;;;;;;4990148;28;20485;-74
2023/07/04 10:24:26;;;;;;;6.87;3.80;;;24.80;1.00;;;;;;4990718;28;20464;-74
2023/07/04 10:27:12;;;;;;;6.57;4.33;;;24.80;1.00;;;;;;4990027;28;20984;-74
2023/07/04 10:29:48;;;;;;;7.60;4.90;;;25.00;1.00;;;;;;4989944;28;20428;-75
2023/07/04 10:32:16;;;;;;;8.00;4.80;;;24.90;1.00;;;;;;4989617;28;20433;-74
2023/07/04 10:34:46;;;;;;;20.70;5.43;;;24.90;1.00;;;;;;4984617;28;20517;-73
2023/07/04 10:37:23;;;;;;;9.70;5.17;;;24.70;1.00;;;;;;4987672;28;20438;-74
2023/07/04 10:39:56;;;;;;;9.30;5.00;;;24.60;1.00;;;;;;4996573;28;20529;-74
2023/07/04 10:42:31;;;;;;;8.50;5.23;;;24.50;1.00;;;;;;4994670;28;20418;-74
2023/07/04 10:44:58;;;;;;;10.10;5.30;;;24.60;1.00;;;;;;4984968;28;20489;-75
2023/07/04 10:47:29;;;;;;;12.30;5.20;;;24.70;1.00;;;;;;4987337;28;20402;-74
2023/07/04 10:50:08;;;;;;;11.27;6.20;;;24.70;1.00;;;;;;4993365;28;20525;-74
2023/07/04 10:56:06;;;;;;;8.90;5.70;;;24.90;1.00;;;;;;4997952;28;21062;-79
2023/07/04 10:58:52;;;;;;;8.93;4.93;;;25.30;1.00;;;;;;5001170;28;20421;-79
2023/07/04 11:05:18;;;;;;;11.77;6.30;;;25.30;1.00;;;;;;5002718;28;20794;-80
2023/07/04 11:07:44;;;;;;;18.50;6.57;;;25.60;1.00;;;;;;4994539;28;20933;-75
2023/07/04 11:10:13;;;;;;;8.93;5.40;;;25.60;1.00;;;;;;4995205;28;20447;-75
2023/07/04 11:16:03;;;;;;;9.20;6.20;;;25.60;1.00;;;;;;5008674;28;20407;-83
2023/07/04 11:19:03;;;;;;;10.10;6.60;;;25.80;1.00;;;;;;4989941;28;20435;-86
2023/07/04 11:21:30;;;;;;;11.87;6.10;;;26.00;1.00;;;;;;4994872;28;20436;-82
2023/07/04 11:24:18;;;;;;;11.50;6.13;;;25.90;1.00;;;;;;4993981;28;20450;-83
2023/07/04 11:26:58;;;;;;;11.00;6.63;;;26.20;1.00;;;;;;5003920;28;20454;-82
2023/07/04 11:29:25;;;;;;;11.27;6.33;;;26.50;1.00;;;;;;5001260;28;20776;-82
2023/07/04 11:35:22;;;;;;;12.03;6.70;;;26.50;1.00;;;;;;4975740;28;20929;-84
2023/07/04 11:38:10;;;;;;;11.57;7.00;;;27.00;1.00;;;;;;5005419;28;20435;-88
2023/07/04 11:40:50;;;;;;;38.67;7.80;;;27.00;1.00;;;;;;5004253;28;20465;-87
2023/07/04 11:44:12;;;;;;;16.50;6.40;;;27.20;1.00;;;;;;5005302;28;20427;-87
2023/07/04 11:46:40;;;;;;;14.20;7.07;;;27.20;1.00;;;;;;5002806;28;20478;-88
2023/07/04 11:49:52;;;;;;;9.33;6.83;;;27.20;1.00;;;;;;4995409;28;20463;-88
2023/07/04 11:52:56;;;;;;;10.20;6.97;;;27.30;1.00;;;;;;4992710;28;20438;-88
2023/07/04 12:02:42;;;;;;;9.20;6.37;;;27.70;1.00;;;;;;4983528;28;20817;-88
2023/07/04 12:05:38;;;;;;;8.50;6.10;;;27.40;1.00;;;;;;4986906;28;20593;-87
2023/07/04 12:11:49;;;;;;;10.30;6.80;;;27.50;1.00;;;;;;4996928;28;20424;-84
2023/07/04 12:14:37;;;;;;;11.13;6.70;;;27.40;1.00;;;;;;5002194;28;20446;-84
2023/07/04 12:17:30;;;;;;;22.03;6.50;;;27.20;1.00;;;;;;4981937;28;20537;-85
2023/07/04 12:27:14;;;;;;;9.27;6.00;;;27.30;1.00;;;;;;5009066;28;20812;-88
2023/07/04 12:30:11;;;;;;;8.90;6.00;;;27.50;1.00;;;;;;4986729;28;21027;-85
2023/07/04 12:32:42;;;;;;;11.30;5.90;;;27.60;1.00;;;;;;4995557;28;20605;-83
2023/07/04 12:35:54;;;;;;;9.37;6.40;;;27.50;1.00;;;;;;5002290;28;20428;-84
2023/07/04 12:45:25;;;;;;;14.83;7.67;;;27.40;1.00;;;;;;4979750;28;20505;-84
2023/07/04 12:48:07;;;;;;;10.17;7.07;;;27.50;1.00;;;;;;4989277;28;20452;-84
2023/07/04 12:51:17;;;;;;;9.80;7.37;;;27.50;1.00;;;;;;4993060;28;20473;-84
2023/07/04 12:54:30;;;;;;;11.30;6.90;;;27.50;1.00;;;;;;4992222;28;20468;-85
2023/07/04 12:56:55;;;;;;;9.47;7.20;;;27.10;1.00;;;;;;5000356;28;20448;-86
2023/07/04 12:59:42;;;;;;;10.70;7.37;;;26.90;1.00;;;;;;4992608;28;20414;-84
2023/07/04 13:05:42;;;;;;;10.23;6.90;;;27.40;1.00;;;;;;4991624;28;20455;-84
2023/07/04 13:08:55;;;;;;;8.23;6.53;;;28.30;1.00;;;;;;4987073;28;20634;-86
2023/07/04 13:11:22;;;;;;;10.67;7.00;;;28.00;1.00;;;;;;4992437;28;20518;-85
2023/07/04 13:17:12;;;;;;;11.60;7.23;;;28.50;1.00;;;;;;4999350;28;20430;-84
2023/07/04 13:26:29;;;;;;;11.10;7.00;;;28.80;1.00;;;;;;4993392;28;20441;-83
2023/07/04 13:29:18;;;;;;;12.00;7.87;;;28.60;1.00;;;;;;4989312;28;20439;-82
2023/07/04 13:32:22;;;;;;;15.00;7.50;;;29.00;1.00;;;;;;4989907;28;20478;-83
2023/07/04 13:35:39;;;;;;;16.67;7.60;;;29.30;1.00;;;;;;4993954;28;20863;-83
2023/07/04 13:38:12;;;;;;;9.87;7.10;;;29.40;1.00;;;;;;4992229;28;20436;-87
2023/07/04 13:44:00;;;;;;;11.70;7.20;;;29.70;1.00;;;;;;5001210;28;20462;-87
2023/07/04 13:49:47;;;;;;;12.67;7.27;;;29.80;1.00;;;;;;4978815;28;20174;-84
2023/07/04 13:52:48;;;;;;;13.10;7.90;;;30.10;1.00;;;;;;4987781;28;20437;-84
2023/07/04 13:55:18;;;;;;;7.60;6.20;;;29.70;1.00;;;;;;5010807;28;20194;-84
2023/07/04 14:01:07;;;;;;;13.13;6.47;;;29.60;1.00;;;;;;5002609;28;20415;-84
2023/07/04 14:07:36;;;;;;;8.00;6.40;;;29.80;1.00;;;;;;4999022;28;21012;-85
2023/07/04 14:10:02;;;;;;;8.73;6.20;;;29.60;1.00;;;;;;4991323;28;20420;-84
2023/07/04 14:12:48;;;;;;;9.40;6.80;;;29.80;1.00;;;;;;5006611;28;20870;-84
2023/07/04 14:18:54;;;;;;;8.83;5.83;;;30.30;1.00;;;;;;4986631;28;21129;-86
2023/07/04 14:24:48;;;;;;;17.20;6.17;;;29.80;1.00;;;;;;4982513;28;20514;-86
2023/07/04 14:27:14;;;;;;;16.00;6.50;;;29.80;1.00;;;;;;4997076;28;20467;-87
2023/07/04 14:33:06;;;;;;;7.27;5.23;;;29.50;1.00;;;;;;4990792;28;20204;-88
2023/07/04 14:36:18;;;;;;;13.03;5.03;;;29.60;1.00;;;;;;4992283;28;20456;-86
2023/07/04 14:38:49;;;;;;;11.47;5.30;;;29.40;1.00;;;;;;5007070;28;20586;-85
2023/07/04 14:41:24;;;;;;;9.63;5.53;;;29.50;1.00;;;;;;4989567;28;21017;-91
2023/07/04 14:44:18;;;;;;;12.83;4.70;;;29.60;1.00;;;;;;4988969;28;20502;-86
2023/07/04 14:46:48;;;;;;;7.50;4.97;;;29.90;1.00;;;;;;4975990;28;20505;-87
2023/07/04 14:52:50;;;;;;;7.10;4.97;;;30.00;1.00;;;;;;4994991;28;20512;-84
2023/07/04 14:55:55;;;;;;;8.10;5.50;;;30.10;1.00;;;;;;5008612;28;20446;-84
2023/07/04 14:58:30;;;;;;;8.73;5.07;;;30.20;1.00;;;;;;4997869;28;20951;-85
2023/07/04 15:01:07;;;;;;;6.07;4.70;;;30.40;1.00;;;;;;5003885;28;20835;-84
2023/07/04 15:03:48;;;;;;;7.90;5.00;;;30.30;1.00;;;;;;4978128;28;20782;-84
2023/07/04 15:06:18;;;;;;;12.37;6.00;;;30.30;1.00;;;;;;4994313;28;20959;-86
2023/07/04 15:09:21;;;;;;;8.80;5.33;;;30.10;1.00;;;;;;5000710;28;20484;-88
2023/07/04 15:11:48;;;;;;;7.13;4.60;;;30.50;1.00;;;;;;4986677;28;20431;-89
2023/07/04 15:14:18;;;;;;;9.00;4.83;;;31.00;1.00;;;;;;4993282;28;21017;-89
2023/07/04 15:17:00;;;;;;;15.50;5.40;;;31.80;1.00;;;;;;5018812;28;20437;-89
2023/07/04 15:19:48;;;;;;;14.70;4.80;;;34.80;1.00;;;;;;4990345;28;20425;-88
2023/07/04 15:22:15;;;;;;;7.43;5.00;;;35.00;1.00;;;;;;4986520;28;20436;-90
2023/07/04 15:24:44;;;;;;;9.40;5.10;;;;;;;;;;5004272;28;20457;-84
2023/07/04 15:27:11;;;;;;;6.07;4.43;;;36.10;1.00;;;;;;5004385;28;21015;-84
2023/07/04 15:29:46;;;;;;;7.83;4.83;;;;;;;;;;4996912;28;20447;-90
2023/07/04 15:32:25;;;;;;;7.43;4.90;;;33.30;1.00;;;;;;4992970;28;20494;-88
2023/07/04 15:35:18;;;;;;;9.80;4.87;;;33.20;1.00;;;;;;4986245;28;20437;-91
2023/07/04 15:37:44;;;;;;;10.57;5.47;;;32.80;1.00;;;;;;4990651;28;20441;-89
2023/07/04 15:40:10;;;;;;;7.27;5.17;;;31.90;1.00;;;;;;4982366;28;20440;-86
2023/07/04 15:42:50;;;;;;;7.37;5.17;;;32.10;1.00;;;;;;5002291;28;20205;-85
2023/07/04 15:45:51;;;;;;;9.60;4.93;;;32.20;1.00;;;;;;5002915;28;20574;-85
2023/07/04 15:48:48;;;;;;;6.10;5.30;;;33.30;1.00;;;;;;4990484;28;20954;-84
2023/07/04 15:51:20;;;;;;;8.50;5.63;;;35.20;1.00;;;;;;4988322;28;20440;-84
2023/07/04 15:53:48;;;;;;;8.70;5.50;;;34.60;1.00;;;;;;4988765;28;20436;-85
2023/07/04 15:56:22;;;;;;;8.73;5.43;;;34.40;1.00;;;;;;4983775;28;20480;-85
2023/07/04 15:59:18;;;;;;;8.10;5.50;;;33.30;1.00;;;;;;4997282;28;20428;-85
2023/07/04 16:02:30;;;;;;;25.23;5.77;;;32.50;1.00;;;;;;5002473;28;20436;-85
2023/07/04 16:05:18;;;;;;;11.33;6.30;;;31.90;1.00;;;;;;4992844;28;20464;-85
2023/07/04 16:07:48;;;;;;;8.03;5.50;;;;;;;;;;4992528;28;20436;-85
2023/07/04 16:10:48;;;;;;;8.83;5.60;;;33.60;1.00;;;;;;5013763;28;20482;-85
2023/07/04 16:13:25;;;;;;;9.90;5.97;;;34.20;1.00;;;;;;5004622;28;20452;-86
2023/07/04 16:16:12;;;;;;;8.43;6.10;;;35.10;1.00;;;;;;4985027;28;20440;-84
2023/07/04 16:18:38;;;;;;;8.10;5.70;;;35.80;1.00;;;;;;4995509;28;20475;-86
2023/07/04 16:21:54;;;;;;;7.67;5.50;;;36.80;1.00;;;;;;5011837;28;20476;-84
2023/07/04 16:24:48;;;;;;;9.47;5.43;;;36.50;1.00;;;;;;5006191;28;20476;-83
2023/07/04 16:27:13;;;;;;;12.43;5.73;;;36.80;1.00;;;;;;5001542;28;20561;-84
2023/07/04 16:29:48;;;;;;;6.30;4.90;;;38.00;1.00;;;;;;5001124;28;21036;-84
2023/07/04 16:32:18;;;;;;;13.60;5.90;;;37.00;1.00;;;;;;4993285;28;20182;-82
2023/07/04 16:38:05;;;;;;;9.50;5.97;;;35.20;1.00;;;;;;4993628;28;20511;-83
2023/07/04 16:40:49;;;;;;;8.30;6.40;;;34.40;1.00;;;;;;4997041;28;20429;-87
2023/07/04 16:43:19;;;;;;;10.07;6.47;;;34.70;1.00;;;;;;5001586;28;20268;-84
2023/07/04 16:49:24;;;;;;;10.17;6.20;;;34.10;1.00;;;;;;4987802;28;20431;-84
2023/07/04 16:52:18;;;;;;;16.03;7.53;;;34.80;1.00;;;;;;5027431;28;20420;-88
2023/07/04 16:54:48;;;;;;;16.20;8.30;;;33.40;1.00;;;;;;5008629;28;20589;-82
2023/07/04 16:57:18;;;;;;;15.87;8.73;;;33.40;1.00;;;;;;4986079;28;20434;-83
2023/07/04 16:59:48;;;;;;;15.90;7.60;;;33.80;1.00;;;;;;4991993;28;20421;-83
2023/07/04 17:02:54;;;;;;;12.43;7.47;;;33.30;1.00;;;;;;4991865;28;20495;-83
2023/07/04 17:05:24;;;;;;;12.90;6.30;;;33.00;1.00;;;;;;4989532;28;20555;-83
2023/07/04 17:08:18;;;;;;;8.43;6.10;;;31.50;1.00;;;;;;4990344;28;20471;-84
2023/07/04 17:10:49;;;;;;;12.63;6.53;;;30.70;1.00;;;;;;4992327;28;20433;-84
2023/07/04 17:13:18;;;;;;;10.97;6.10;;;30.70;1.00;;;;;;5012372;28;20786;-84
2023/07/04 17:15:53;;;;;;;10.57;5.60;;;30.60;1.00;;;;;;4992047;28;20437;-83
2023/07/04 17:18:48;;;;;;;13.77;6.00;;;32.30;1.00;;;;;;4994195;28;20432;-84
2023/07/04 17:21:14;;;;;;;9.23;5.57;;;32.30;1.00;;;;;;5011922;28;20436;-83
2023/07/04 17:23:42;;;;;;;10.10;5.90;;;31.30;1.00;;;;;;5008615;28;20848;-85
2023/07/04 17:26:08;;;;;;;15.90;5.33;;;31.80;1.00;;;;;;4993289;28;20264;-84
2023/07/04 17:28:48;;;;;;;8.40;5.60;;;32.00;1.00;;;;;;4992584;28;20543;-83
2023/07/04 17:35:18;;;;;;;6.00;5.30;;;32.30;1.00;;;;;;4991905;28;20438;-83
2023/07/04 17:37:48;;;;;;;12.07;5.57;;;32.70;1.00;;;;;;4992299;28;20437;-83
2023/07/04 17:40:18;;;;;;;7.97;4.90;;;32.80;1.00;;;;;;4999561;28;20802;-85
2023/07/04 17:43:18;;;;;;;13.90;5.57;;;33.00;1.00;;;;;;5003835;28;20465;-86
2023/07/04 17:45:57;;;;;;;8.33;4.97;;;32.50;1.00;;;;;;5002174;28;20479;-86
2023/07/04 17:48:48;;;;;;;5.73;4.80;;;32.40;1.00;;;;;;5013990;28;20479;-86
2023/07/04 17:51:20;;;;;;;6.80;5.20;;;32.30;1.00;;;;;;4992517;28;20425;-84